createdAt,value
2023-05-15T00:02:24.913Z,2.40
2023-05-15T00:04:52.172Z,2.30
2023-05-15T00:07:19.468Z,2.30
2023-05-15T00:09:46.572Z,2.23
2023-05-15T00:12:13.634Z,2.27
2023-05-15T00:14:40.779Z,2.40
2023-05-15T00:17:08.743Z,2.20
2023-05-15T00:19:35.964Z,2.17
2023-05-15T00:22:03.079Z,2.40
2023-05-15T00:24:30.190Z,2.50
2023-05-15T00:26:57.439Z,2.43
2023-05-15T00:29:24.515Z,2.20
2023-05-15T00:31:51.690Z,2.20
2023-05-15T00:34:19.070Z,2.17
2023-05-15T00:36:46.224Z,2.50
2023-05-15T00:39:13.300Z,2.00
2023-05-15T00:41:41.940Z,2.30
2023-05-15T00:44:11.437Z,2.37
2023-05-15T00:46:40.121Z,2.20
2023-05-15T00:49:13.466Z,2.27
2023-05-15T00:51:42.348Z,2.00
2023-05-15T00:54:10.940Z,2.50
2023-05-15T00:56:38.538Z,2.30
2023-05-15T00:59:05.760Z,2.23
2023-05-15T01:01:34.847Z,2.30
2023-05-15T01:04:03.886Z,2.27
2023-05-15T01:06:32.176Z,2.40
2023-05-15T01:09:02.301Z,2.10
2023-05-15T01:11:36.428Z,2.23
2023-05-15T01:14:05.966Z,2.27
2023-05-15T01:16:34.031Z,2.03
2023-05-15T01:19:03.490Z,2.20
2023-05-15T01:21:36.798Z,2.30
2023-05-15T01:24:34.777Z,2.17
2023-05-15T01:27:14.614Z,2.20
2023-05-15T01:30:14.914Z,2.30
2023-05-15T01:33:17.346Z,2.23
2023-05-15T01:35:50.682Z,2.23
2023-05-15T01:38:39.985Z,2.30
2023-05-15T01:41:22.308Z,2.37
2023-05-15T01:43:56.373Z,2.20
2023-05-15T01:46:24.326Z,2.20
2023-05-15T01:48:53.692Z,2.60
2023-05-15T01:51:22.802Z,2.40
2023-05-15T01:53:50.695Z,2.40
2023-05-15T01:56:23.069Z,2.40
2023-05-15T01:58:52.472Z,2.37
2023-05-15T02:01:20.099Z,2.20
2023-05-15T02:03:47.958Z,2.30
2023-05-15T02:06:16.257Z,2.50
2023-05-15T02:08:44.752Z,2.50
2023-05-15T02:11:13.455Z,2.30
2023-05-15T02:13:42.204Z,2.20
2023-05-15T02:16:09.438Z,2.60
2023-05-15T02:18:37.685Z,2.33
2023-05-15T02:21:04.814Z,2.23
2023-05-15T02:23:31.858Z,2.20
2023-05-15T02:26:29.432Z,2.40
2023-05-15T02:29:33.879Z,2.30
2023-05-15T02:32:12.963Z,2.13
2023-05-15T02:35:08.498Z,2.63
2023-05-15T02:37:40.173Z,2.17
2023-05-15T02:40:13.577Z,2.60
2023-05-15T02:42:41.736Z,2.40
2023-05-15T02:45:10.562Z,2.53
2023-05-15T02:47:38.164Z,2.30
2023-05-15T02:50:06.147Z,2.80
2023-05-15T02:52:36.580Z,2.60
2023-05-15T02:55:04.425Z,2.60
2023-05-15T02:57:31.537Z,2.33
2023-05-15T02:59:58.911Z,2.60
2023-05-15T03:02:26.048Z,2.40
2023-05-15T03:04:53.125Z,2.47
2023-05-15T03:07:20.178Z,2.40
2023-05-15T03:09:47.339Z,2.40
2023-05-15T03:12:14.521Z,2.30
2023-05-15T03:14:41.540Z,2.33
2023-05-15T03:17:08.733Z,2.27
2023-05-15T03:19:36.085Z,2.47
2023-05-15T03:22:03.207Z,2.23
2023-05-15T03:24:30.258Z,2.47
2023-05-15T03:26:57.292Z,2.43
2023-05-15T03:29:24.456Z,2.97
2023-05-15T03:31:51.607Z,2.80
2023-05-15T03:34:18.645Z,2.70
2023-05-15T03:36:45.888Z,2.73
2023-05-15T03:39:12.978Z,2.80
2023-05-15T03:41:39.981Z,2.67
2023-05-15T03:44:06.994Z,2.60
2023-05-15T03:46:34.055Z,2.40
2023-05-15T03:49:02.879Z,2.50
2023-05-15T03:51:29.963Z,2.60
2023-05-15T03:53:57.547Z,2.47
2023-05-15T03:56:24.607Z,2.77
2023-05-15T03:58:51.727Z,2.50
2023-05-15T04:01:18.794Z,2.60
2023-05-15T04:03:45.888Z,2.47
2023-05-15T04:06:12.885Z,2.80
2023-05-15T04:08:41.469Z,2.50
2023-05-15T04:11:10.052Z,2.70
2023-05-15T04:13:37.128Z,2.37
2023-05-15T04:16:04.484Z,2.47
2023-05-15T04:18:31.700Z,2.90
2023-05-15T04:20:58.770Z,2.53
2023-05-15T04:23:26.209Z,2.50
2023-05-15T04:25:53.801Z,2.40
2023-05-15T04:28:21.796Z,2.60
2023-05-15T04:30:48.826Z,2.60
2023-05-15T04:33:15.977Z,2.43
2023-05-15T04:35:43.558Z,2.80
2023-05-15T04:38:10.651Z,2.70
2023-05-15T04:40:37.966Z,2.57
2023-05-15T04:43:06.017Z,2.60
2023-05-15T04:45:33.169Z,2.43
2023-05-15T04:48:00.352Z,2.63
2023-05-15T04:50:27.635Z,2.80
2023-05-15T04:52:54.778Z,2.60
2023-05-15T04:55:22.005Z,2.57
2023-05-15T04:57:49.227Z,2.80
2023-05-15T05:00:16.560Z,2.83
2023-05-15T05:02:44.212Z,3.27
2023-05-15T05:05:11.661Z,2.93
2023-05-15T05:07:38.755Z,2.47
2023-05-15T05:10:06.527Z,2.90
2023-05-15T05:12:33.609Z,2.70
2023-05-15T05:15:00.679Z,2.87
2023-05-15T05:17:28.324Z,2.70
2023-05-15T05:19:55.419Z,3.10
2023-05-15T05:22:22.449Z,3.60
2023-05-15T05:24:49.478Z,3.50
2023-05-15T05:27:16.627Z,3.10
2023-05-15T05:29:43.753Z,3.43
2023-05-15T05:32:10.781Z,3.13
2023-05-15T05:34:37.837Z,2.90
2023-05-15T05:37:05.025Z,3.20
2023-05-15T05:39:32.152Z,3.20
2023-05-15T05:41:59.175Z,3.30
2023-05-15T05:44:26.439Z,3.10
2023-05-15T05:46:53.604Z,3.20
2023-05-15T05:49:20.765Z,3.43
2023-05-15T05:51:47.840Z,2.97
2023-05-15T05:54:15.160Z,3.27
2023-05-15T05:56:46.008Z,2.90
2023-05-15T05:59:13.166Z,2.83
2023-05-15T06:01:40.410Z,3.10
2023-05-15T06:04:07.578Z,3.17
2023-05-15T06:06:35.402Z,3.00
2023-05-15T06:09:02.461Z,3.30
2023-05-15T06:11:29.561Z,3.30
2023-05-15T06:13:56.822Z,3.20
2023-05-15T06:16:23.973Z,3.50
2023-05-15T06:18:51.247Z,3.13
2023-05-15T06:21:18.324Z,3.07
2023-05-15T06:23:45.896Z,3.30
2023-05-15T06:26:13.381Z,3.10
2023-05-15T06:28:40.460Z,3.20
2023-05-15T06:31:07.584Z,3.03
2023-05-15T06:33:34.603Z,2.70
2023-05-15T06:36:02.012Z,2.63
2023-05-15T06:38:29.032Z,2.70
2023-05-15T06:40:56.173Z,2.50
2023-05-15T06:43:23.205Z,3.10
2023-05-15T06:45:50.565Z,2.70
2023-05-15T06:48:17.771Z,2.80
2023-05-15T06:50:44.828Z,2.80
2023-05-15T06:53:14.176Z,2.50
2023-05-15T06:55:41.691Z,2.53
2023-05-15T06:58:08.703Z,2.93
2023-05-15T07:00:35.716Z,2.90
2023-05-15T07:03:02.853Z,2.60
2023-05-15T07:05:30.011Z,2.90
2023-05-15T07:07:57.165Z,3.13
2023-05-15T07:10:24.444Z,3.10
2023-05-15T07:12:51.710Z,2.93
2023-05-15T07:15:18.848Z,3.20
2023-05-15T07:17:46.013Z,3.20
2023-05-15T07:20:13.146Z,3.00
2023-05-15T07:22:52.038Z,3.00
2023-05-15T07:25:22.855Z,2.87
2023-05-15T07:27:50.082Z,3.07
2023-05-15T07:30:17.236Z,3.20
2023-05-15T07:32:44.448Z,3.20
2023-05-15T07:35:11.745Z,3.13
2023-05-15T07:37:39.576Z,3.03
2023-05-15T07:40:07.854Z,3.20
2023-05-15T07:42:34.964Z,3.57
2023-05-15T07:45:02.106Z,3.43
2023-05-15T07:47:29.243Z,3.10
2023-05-15T07:49:56.708Z,3.17
2023-05-15T07:52:23.901Z,3.10
2023-05-15T07:54:50.912Z,3.20
2023-05-15T07:57:18.347Z,3.00
2023-05-15T07:59:46.832Z,3.27
2023-05-15T08:02:14.495Z,3.03
2023-05-15T08:04:41.718Z,3.00
2023-05-15T08:07:08.841Z,3.17
2023-05-15T08:09:35.929Z,2.90
2023-05-15T08:12:21.392Z,3.20
2023-05-15T08:14:53.296Z,2.87
2023-05-15T08:17:21.198Z,3.20
2023-05-15T08:19:48.560Z,3.27
2023-05-15T08:22:16.241Z,3.27
2023-05-15T08:24:43.709Z,3.27
2023-05-15T08:27:10.819Z,2.70
2023-05-15T08:29:39.655Z,3.10
2023-05-15T08:32:09.060Z,3.17
2023-05-15T08:34:36.200Z,2.97
2023-05-15T08:37:04.367Z,2.77
2023-05-15T08:39:32.004Z,2.80
2023-05-15T08:42:08.392Z,3.23
2023-05-15T08:44:36.629Z,2.90
2023-05-15T08:47:06.110Z,3.00
2023-05-15T08:49:54.221Z,2.97
2023-05-15T08:52:21.858Z,3.03
2023-05-15T08:54:49.271Z,2.50
2023-05-15T08:57:17.615Z,2.90
2023-05-15T08:59:44.732Z,2.67
2023-05-15T09:02:12.081Z,3.00
2023-05-15T09:04:39.368Z,2.80
2023-05-15T09:07:07.860Z,3.00
2023-05-15T09:09:35.654Z,3.20
2023-05-15T09:12:04.423Z,3.07
2023-05-15T09:14:31.580Z,3.20
2023-05-15T09:16:59.469Z,3.40
2023-05-15T09:19:27.824Z,3.20
2023-05-15T09:21:54.863Z,3.10
2023-05-15T09:24:24.728Z,3.30
2023-05-15T09:27:06.370Z,2.87
2023-05-15T09:29:35.154Z,2.93
2023-05-15T09:32:08.773Z,2.67
2023-05-15T09:34:38.221Z,2.67
2023-05-15T09:37:07.335Z,3.10
2023-05-15T09:39:40.133Z,2.77
2023-05-15T09:42:11.878Z,2.67
2023-05-15T09:44:43.197Z,2.83
2023-05-15T09:47:12.269Z,2.83
2023-05-15T09:49:39.928Z,2.70
2023-05-15T09:52:10.946Z,2.27
2023-05-15T09:54:38.378Z,2.67
2023-05-15T09:57:13.106Z,2.70
2023-05-15T09:59:45.460Z,3.20
2023-05-15T10:02:34.911Z,2.60
2023-05-15T10:05:02.299Z,2.77
2023-05-15T10:07:36.530Z,2.50
2023-05-15T10:10:05.024Z,2.42
2023-05-15T10:12:32.629Z,2.70
2023-05-15T10:15:01.154Z,2.80
2023-05-15T10:17:30.294Z,2.88
2023-05-15T10:20:00.705Z,2.90
2023-05-15T10:22:32.430Z,2.60
2023-05-15T10:25:27.946Z,2.55
2023-05-15T10:27:55.944Z,2.83
2023-05-15T10:30:25.099Z,2.30
2023-05-15T10:33:38.164Z,2.10
2023-05-15T10:36:06.446Z,2.08
2023-05-15T10:38:35.542Z,2.30
2023-05-15T10:41:15.739Z,2.47
2023-05-15T10:43:44.521Z,2.60
2023-05-15T10:46:12.200Z,2.45
2023-05-15T10:48:40.218Z,2.97
2023-05-15T10:51:19.272Z,2.50
2023-05-15T10:53:46.716Z,2.50
2023-05-15T10:56:16.769Z,2.40
2023-05-15T10:58:51.708Z,2.30
2023-05-15T11:01:33.656Z,1.80
2023-05-15T11:04:16.864Z,2.20
2023-05-15T11:06:45.623Z,2.10
2023-05-15T11:09:21.941Z,2.22
2023-05-15T11:11:52.349Z,2.17
2023-05-15T11:14:19.958Z,2.00
2023-05-15T11:16:57.581Z,2.10
2023-05-15T11:19:49.569Z,2.00
2023-05-15T11:22:26.999Z,1.90
2023-05-15T11:25:06.381Z,2.10
2023-05-15T11:27:43.036Z,1.90
2023-05-15T11:30:14.199Z,2.00
2023-05-15T11:32:47.315Z,2.40
2023-05-15T11:35:37.017Z,1.83
2023-05-15T11:38:09.980Z,2.00
2023-05-15T11:40:58.623Z,2.20
2023-05-15T11:43:26.986Z,2.58
2023-05-15T11:46:05.433Z,2.40
2023-05-15T11:48:39.296Z,2.00
2023-05-15T11:51:27.628Z,2.20
2023-05-15T11:53:56.053Z,2.35
2023-05-15T11:56:30.480Z,2.88
2023-05-15T11:58:59.009Z,2.50
2023-05-15T12:01:26.535Z,2.60
2023-05-15T12:03:56.987Z,2.38
2023-05-15T12:06:24.496Z,2.47
2023-05-15T12:08:53.345Z,2.30
2023-05-15T12:11:24.730Z,2.38
2023-05-15T12:14:10.338Z,2.00
2023-05-15T12:16:37.714Z,2.22
2023-05-15T12:19:04.885Z,2.60
2023-05-15T12:21:32.148Z,2.20
2023-05-15T12:26:30.004Z,2.13
2023-05-15T12:28:57.185Z,2.40
2023-05-15T12:31:24.650Z,2.50
2023-05-15T12:33:51.868Z,2.40
2023-05-15T12:36:21.216Z,4.28
2023-05-15T12:38:49.096Z,2.45
2023-05-15T12:41:16.412Z,2.63
2023-05-15T12:43:43.574Z,2.20
2023-05-15T12:46:13.829Z,2.40
2023-05-15T12:48:41.100Z,2.17
2023-05-15T12:51:08.707Z,2.30
2023-05-15T12:53:36.359Z,2.47
2023-05-15T12:56:04.780Z,2.50
2023-05-15T12:58:32.493Z,2.30
2023-05-15T13:00:59.688Z,2.40
2023-05-15T13:03:28.026Z,2.47
2023-05-15T13:05:55.603Z,2.42
2023-05-15T13:08:22.762Z,2.38
2023-05-15T13:10:57.742Z,2.50
2023-05-15T13:13:24.914Z,2.53
2023-05-15T13:15:54.242Z,2.20
2023-05-15T13:18:21.368Z,2.45
2023-05-15T13:20:53.632Z,2.38
2023-05-15T13:23:23.513Z,2.50
2023-05-15T13:25:50.771Z,2.50
2023-05-15T13:28:17.841Z,2.20
2023-05-15T13:30:44.981Z,2.40
2023-05-15T13:33:12.961Z,2.80
2023-05-15T13:35:43.271Z,2.30
2023-05-15T13:38:11.825Z,2.47
2023-05-15T13:40:39.703Z,2.10
2023-05-15T13:43:09.809Z,2.63
2023-05-15T13:45:37.283Z,2.55
2023-05-15T13:48:04.582Z,2.50
2023-05-15T13:50:31.699Z,2.45
2023-05-15T13:52:58.814Z,2.60
2023-05-15T13:55:26.231Z,2.47
2023-05-15T13:57:53.518Z,2.30
2023-05-15T14:00:21.086Z,2.40
2023-05-15T14:02:48.259Z,2.40
2023-05-15T14:05:16.801Z,2.47
2023-05-15T14:07:44.065Z,2.30
2023-05-15T14:10:11.370Z,2.28
2023-05-15T14:12:38.685Z,2.58
2023-05-15T14:15:06.599Z,2.78
2023-05-15T14:17:33.795Z,2.53
2023-05-15T14:20:00.813Z,2.60
2023-05-15T14:22:27.980Z,2.35
2023-05-15T14:24:57.575Z,2.50
2023-05-15T14:27:24.633Z,2.67
2023-05-15T14:29:52.038Z,2.78
2023-05-15T14:32:19.169Z,3.10
2023-05-15T14:34:46.637Z,2.70
2023-05-15T14:37:13.852Z,3.15
2023-05-15T14:39:41.027Z,2.90
2023-05-15T14:42:08.409Z,3.30
2023-05-15T14:44:35.666Z,2.83
2023-05-15T14:47:07.773Z,3.50
2023-05-15T14:49:35.921Z,2.70
2023-05-15T14:52:04.143Z,2.42
2023-05-15T14:54:32.254Z,2.72
2023-05-15T14:56:59.372Z,2.83
2023-05-15T14:59:27.887Z,2.92
2023-05-15T15:01:55.148Z,2.60
2023-05-15T15:04:22.255Z,2.78
2023-05-15T15:06:49.386Z,2.72
2023-05-15T15:09:17.805Z,2.65
2023-05-15T15:11:45.930Z,2.90
2023-05-15T15:14:12.958Z,2.55
2023-05-15T15:16:41.643Z,2.95
2023-05-15T15:19:08.741Z,2.70
2023-05-15T15:21:36.611Z,2.80
2023-05-15T15:24:03.829Z,2.80
2023-05-15T15:26:31.003Z,2.60
2023-05-15T15:29:01.020Z,2.28
2023-05-15T15:31:30.268Z,2.78
2023-05-15T15:33:58.188Z,2.53
2023-05-15T15:36:25.680Z,2.63
2023-05-15T15:38:52.873Z,2.70
2023-05-15T15:41:21.645Z,3.33
2023-05-15T15:43:48.898Z,2.70
2023-05-15T15:46:16.084Z,3.00
2023-05-15T15:48:43.363Z,3.20
2023-05-15T15:51:10.555Z,2.72
2023-05-15T15:53:38.721Z,3.30
2023-05-15T15:56:07.019Z,3.08
2023-05-15T15:58:34.298Z,2.97
2023-05-15T16:01:01.511Z,3.40
2023-05-15T16:03:28.662Z,3.13
2023-05-15T16:05:56.631Z,3.47
2023-05-15T16:08:25.002Z,3.50
2023-05-15T16:10:53.985Z,3.28
2023-05-15T16:13:21.412Z,4.05
2023-05-15T16:15:48.473Z,3.15
2023-05-15T16:18:15.601Z,3.35
2023-05-15T16:20:42.696Z,2.80
2023-05-15T16:23:11.725Z,3.30
2023-05-15T16:25:38.828Z,3.10
2023-05-15T16:28:06.942Z,3.05
2023-05-15T16:33:07.740Z,2.92
2023-05-15T16:35:36.810Z,2.90
2023-05-15T16:38:04.596Z,2.80
2023-05-15T16:40:31.687Z,3.20
2023-05-15T16:42:58.832Z,3.00
2023-05-15T16:45:26.089Z,2.83
2023-05-15T16:47:53.154Z,3.10
2023-05-15T16:50:20.623Z,2.97
2023-05-15T16:52:48.307Z,2.72
2023-05-15T16:55:17.091Z,2.75
2023-05-15T16:57:45.334Z,3.22
2023-05-15T17:00:14.331Z,2.90
2023-05-15T17:02:44.526Z,3.00
2023-05-15T17:05:12.029Z,2.88
2023-05-15T17:07:39.556Z,3.13
2023-05-15T17:10:08.106Z,3.20
2023-05-15T17:12:35.515Z,3.10
2023-05-15T17:15:03.048Z,3.00
2023-05-15T17:17:30.330Z,2.85
2023-05-15T17:19:57.770Z,3.22
2023-05-15T17:22:25.109Z,3.15
2023-05-15T17:24:52.352Z,3.50
2023-05-15T17:27:20.589Z,3.17
2023-05-15T17:29:47.998Z,2.90
2023-05-15T17:32:16.949Z,3.20
2023-05-15T17:34:44.920Z,2.85
2023-05-15T17:37:12.345Z,2.72
2023-05-15T17:39:39.513Z,2.95
2023-05-15T17:42:06.574Z,3.30
2023-05-15T17:44:33.826Z,3.10
2023-05-15T17:47:01.092Z,3.13
2023-05-15T17:49:28.484Z,3.20
2023-05-15T17:51:56.088Z,2.95
2023-05-15T17:54:23.286Z,3.50
2023-05-15T17:56:50.416Z,2.97
2023-05-15T17:59:17.505Z,3.03
2023-05-15T18:01:45.156Z,3.05
2023-05-15T18:04:12.325Z,3.03
2023-05-15T18:06:39.540Z,3.17
2023-05-15T18:09:06.626Z,3.40
2023-05-15T18:11:33.956Z,3.35
2023-05-15T18:14:01.401Z,3.20
2023-05-15T18:16:29.724Z,3.15
2023-05-15T18:18:57.011Z,3.00
2023-05-15T18:21:24.231Z,3.15
2023-05-15T18:23:51.439Z,3.17
2023-05-15T18:26:18.472Z,3.08
2023-05-15T18:28:45.899Z,3.20
2023-05-15T18:31:13.104Z,2.88
2023-05-15T18:33:40.776Z,3.13
2023-05-15T18:36:07.913Z,3.20
2023-05-15T18:38:35.642Z,3.00
2023-05-15T18:41:02.776Z,3.22
2023-05-15T18:43:29.849Z,2.85
2023-05-15T18:45:56.919Z,3.13
2023-05-15T18:48:23.961Z,3.20
2023-05-15T18:50:52.889Z,3.40
2023-05-15T18:53:19.911Z,3.33
2023-05-15T18:55:47.223Z,3.00
2023-05-15T18:58:14.374Z,3.08
2023-05-15T19:00:41.438Z,3.13
2023-05-15T19:03:09.416Z,3.00
2023-05-15T19:05:36.617Z,3.00
2023-05-15T19:08:04.463Z,3.33
2023-05-15T19:10:31.776Z,3.15
2023-05-15T19:12:59.152Z,3.20
2023-05-15T19:15:26.741Z,3.30
2023-05-15T19:17:53.854Z,3.22
2023-05-15T19:20:21.412Z,3.20
2023-05-15T19:22:48.576Z,3.42
2023-05-15T19:25:15.703Z,3.20
2023-05-15T19:27:42.835Z,3.42
2023-05-15T19:30:10.303Z,3.33
2023-05-15T19:32:37.973Z,3.17
2023-05-15T19:35:05.891Z,3.20
2023-05-15T19:37:33.032Z,3.40
2023-05-15T19:40:00.136Z,3.00
2023-05-15T19:42:27.233Z,3.13
2023-05-15T19:44:54.269Z,3.40
2023-05-15T19:47:21.538Z,3.40
2023-05-15T19:49:48.596Z,3.03
2023-05-15T19:52:16.611Z,3.50
2023-05-15T19:54:44.359Z,3.15
2023-05-15T19:57:11.509Z,3.20
2023-05-15T19:59:38.598Z,3.17
2023-05-15T20:02:09.138Z,3.10
2023-05-15T20:04:37.052Z,3.15
2023-05-15T20:07:04.477Z,3.22
2023-05-15T20:09:31.647Z,3.63
2023-05-15T20:11:58.847Z,3.20
2023-05-15T20:14:25.964Z,3.40
2023-05-15T20:16:53.123Z,3.20
2023-05-15T20:19:22.154Z,3.35
2023-05-15T20:21:49.984Z,3.20
2023-05-15T20:24:17.865Z,3.45
2023-05-15T20:26:45.495Z,3.28
2023-05-15T20:29:12.603Z,3.15
2023-05-15T20:31:40.599Z,3.30
2023-05-15T20:34:08.229Z,3.58
2023-05-15T20:36:36.049Z,3.67
2023-05-15T20:39:05.980Z,3.25
2023-05-15T20:41:34.203Z,3.20
2023-05-15T20:44:01.577Z,3.03
2023-05-15T20:46:30.196Z,3.60
2023-05-15T20:48:57.937Z,3.58
2023-05-15T20:51:25.162Z,3.28
2023-05-15T20:53:52.220Z,3.40
2023-05-15T20:56:19.422Z,3.60
2023-05-15T20:58:46.501Z,3.17
2023-05-15T21:01:13.860Z,3.47
2023-05-15T21:03:41.251Z,3.40
2023-05-15T21:06:09.123Z,3.72
2023-05-15T21:08:36.356Z,3.60
2023-05-15T21:11:03.491Z,3.20
2023-05-15T21:13:30.593Z,3.53
2023-05-15T21:15:57.690Z,3.38
2023-05-15T21:18:24.721Z,3.45
2023-05-15T21:20:51.794Z,3.47
2023-05-15T21:23:21.018Z,3.47
2023-05-15T21:25:48.282Z,3.25
2023-05-15T21:28:15.973Z,3.70
2023-05-15T21:30:43.084Z,3.78
2023-05-15T21:33:10.687Z,3.60
2023-05-15T21:35:38.318Z,3.65
2023-05-15T21:38:05.625Z,3.58
2023-05-15T21:40:32.890Z,3.95
2023-05-15T21:43:00.000Z,3.30
2023-05-15T21:45:27.144Z,3.53
2023-05-15T21:47:54.330Z,3.75
2023-05-15T21:50:21.486Z,3.50
2023-05-15T21:52:50.952Z,3.70
2023-05-15T21:55:18.819Z,3.47
2023-05-15T21:57:46.127Z,3.75
2023-05-15T22:00:14.199Z,3.65
2023-05-15T22:02:41.408Z,3.65
2023-05-15T22:05:09.054Z,3.80
2023-05-15T22:07:36.293Z,3.65
2023-05-15T22:10:03.781Z,3.90
2023-05-15T22:13:05.909Z,3.75
2023-05-15T22:15:33.040Z,3.92
2023-05-15T22:18:00.556Z,3.75
2023-05-15T22:20:29.116Z,3.35
2023-05-15T22:22:56.226Z,3.72
2023-05-15T22:25:23.524Z,3.45
2023-05-15T22:27:50.753Z,3.80
2023-05-15T22:30:17.869Z,3.55
2023-05-15T22:32:45.421Z,3.78
2023-05-15T22:35:13.385Z,3.63
2023-05-15T22:37:42.158Z,3.75
2023-05-15T22:40:12.829Z,3.77
2023-05-15T22:42:40.050Z,3.88
2023-05-15T22:45:07.870Z,4.10
2023-05-15T22:47:35.107Z,3.22
2023-05-15T22:50:02.857Z,3.50
2023-05-15T22:52:30.072Z,3.80
2023-05-15T22:55:13.031Z,3.70
2023-05-15T22:57:40.128Z,3.85
2023-05-15T23:00:08.155Z,3.70
2023-05-15T23:02:37.446Z,3.70
2023-05-15T23:05:04.924Z,3.73
2023-05-15T23:08:28.100Z,3.57
2023-05-15T23:11:13.434Z,3.70
2023-05-15T23:13:40.671Z,3.90
2023-05-15T23:16:07.785Z,3.53
2023-05-15T23:18:35.014Z,3.67
2023-05-15T23:21:02.626Z,3.20
2023-05-15T23:23:29.703Z,3.70
2023-05-15T23:25:56.819Z,3.70
2023-05-15T23:28:23.919Z,3.23
2023-05-15T23:30:54.692Z,3.83
2023-05-15T23:33:22.472Z,3.90
2023-05-15T23:35:49.561Z,3.43
2023-05-15T23:38:16.666Z,3.80
2023-05-15T23:40:43.852Z,3.73
2023-05-15T23:43:11.111Z,3.40
2023-05-15T23:45:38.220Z,3.53
2023-05-15T23:48:05.357Z,3.70
2023-05-15T23:50:32.585Z,3.80
2023-05-15T23:52:59.663Z,3.53
2023-05-15T23:55:26.849Z,3.43
2023-05-15T23:57:54.010Z,3.80
